Time;durP1;ratioP1;P1;durP2;ratioP2;P2;SDS_P1;SDS_P2;PMS_P1;PMS_P2;Temp;Humidity;BMP_temperature;BMP_pressure;BME280_temperature;BME280_humidity;BME280_pressure;Samples;Min_cycle;Max_cycle;Signal;HPM_P1;HPM_P2
2021/10/08 00:02:13;;;;;;;1.95;0.30;;;;;;;;;;5021125;28;20070;-60
2021/10/08 00:04:39;;;;;;;0.30;0.25;;;;;;;;;;5019230;28;20083;-59
2021/10/08 00:07:05;;;;;;;0.45;0.22;;;;;;;;;;5017213;28;20509;-60
2021/10/08 00:09:30;;;;;;;0.30;0.20;;;;;;;;;;5021945;28;20041;-60
2021/10/08 00:11:57;;;;;;;0.75;0.20;;;;;;;;;;5017096;28;20550;-59
2021/10/08 00:14:24;;;;;;;1.20;0.30;;;;;;;;;;5022977;28;20053;-60
2021/10/08 00:16:50;;;;;;;0.45;0.35;;;;;;;;;;5019442;28;20121;-60
2021/10/08 00:19:15;;;;;;;0.77;0.20;;;;;;;;;;5018527;28;20128;-60
2021/10/08 00:21:41;;;;;;;0.40;0.25;;;;;;;;;;5016271;28;20033;-60
2021/10/08 00:24:06;;;;;;;0.40;0.20;;;;;;;;;;5016736;28;20034;-61
2021/10/08 00:26:32;;;;;;;0.20;0.20;;;;;;;;;;5013077;28;20080;-60
2021/10/08 00:28:57;;;;;;;0.82;0.20;;;;;;;;;;5017721;28;20500;-60
2021/10/08 00:31:23;;;;;;;1.33;0.30;;;;;;;;;;5019720;28;20108;-60
2021/10/08 00:33:48;;;;;;;1.88;0.30;;;;;;;;;;5017066;28;20129;-60
2021/10/08 00:36:14;;;;;;;0.35;0.30;;;;;;;;;;5014841;28;20033;-60
2021/10/08 00:38:40;;;;;;;0.60;0.20;;;;;;;;;;5013685;28;20025;-60
2021/10/08 00:41:07;;;;;;;0.43;0.20;;;;;;;;;;5020706;28;20041;-60
2021/10/08 00:43:32;;;;;;;1.92;0.30;;;;;;;;;;5014552;28;20037;-60
2021/10/08 00:45:58;;;;;;;0.60;0.30;;;;;;;;;;5022108;28;20095;-60
2021/10/08 00:48:23;;;;;;;1.73;0.40;;;;;;;;;;5022178;28;20037;-60
2021/10/08 00:50:50;;;;;;;0.17;0.10;;;;;;;;;;5018966;28;20026;-60
2021/10/08 00:53:17;;;;;;;0.75;0.43;;;;;;;;;;5021713;28;20036;-60
2021/10/08 00:55:50;;;;;;;0.55;0.30;;;;;;;;;;5017887;28;20619;-61
2021/10/08 00:58:18;;;;;;;0.85;0.40;;;;;;;;;;5018438;28;20428;-60
2021/10/08 01:00:46;;;;;;;1.10;0.32;;;;;;;;;;5013497;28;20049;-60
2021/10/08 01:03:12;;;;;;;0.30;0.20;;;;;;;;;;5014949;28;20488;-60
2021/10/08 01:05:40;;;;;;;1.10;0.30;;;;;;;;;;5013002;28;20033;-60
2021/10/08 01:08:06;;;;;;;3.10;0.50;;;;;;;;;;5024409;28;20061;-61
2021/10/08 01:10:32;;;;;;;0.93;0.20;;;;;;;;;;5017315;28;20025;-60
2021/10/08 01:12:59;;;;;;;0.52;0.20;;;;;;;;;;5018342;28;20300;-60
2021/10/08 01:15:24;;;;;;;0.93;0.35;;;;;;;;;;5018197;28;20026;-61
2021/10/08 01:17:52;;;;;;;1.15;0.40;;;;;;;;;;5014427;28;20022;-60
2021/10/08 01:20:18;;;;;;;0.60;0.20;;;;;;;;;;5016471;28;20037;-60
2021/10/08 01:22:43;;;;;;;0.68;0.20;;;;;;;;;;5023571;28;20495;-60
2021/10/08 01:25:09;;;;;;;0.30;0.20;;;;;;;;;;5018871;28;20096;-60
2021/10/08 01:27:35;;;;;;;1.63;0.32;;;;;;;;;;5022959;28;20502;-60
2021/10/08 01:30:02;;;;;;;0.80;0.30;;;;;;;;;;5016577;28;20021;-60
2021/10/08 01:32:29;;;;;;;0.98;0.22;;;;;;;;;;5016647;28;20352;-60
2021/10/08 01:34:55;;;;;;;0.30;0.20;;;;;;;;;;5015213;28;20468;-59
2021/10/08 01:37:21;;;;;;;0.75;0.28;;;;;;;;;;5016823;28;20048;-60
2021/10/08 01:39:47;;;;;;;2.17;0.20;;;;;;;;;;5012651;28;20418;-60
2021/10/08 01:42:13;;;;;;;0.73;0.20;;;;;;;;;;5021501;28;20504;-60
2021/10/08 01:44:39;;;;;;;0.43;0.20;;;;;;;;;;5017405;28;20041;-60
2021/10/08 01:47:05;;;;;;;0.88;0.22;;;;;;;;;;5015114;28;20034;-60
2021/10/08 01:49:31;;;;;;;0.90;0.20;;;;;;;;;;5020816;28;20584;-60
2021/10/08 01:51:57;;;;;;;1.02;0.20;;;;;;;;;;5016558;28;20037;-60
2021/10/08 01:54:23;;;;;;;0.95;0.17;;;;;;;;;;5016558;28;20128;-60
2021/10/08 01:56:48;;;;;;;0.93;0.28;;;;;;;;;;5013393;28;20821;-60
2021/10/08 01:59:14;;;;;;;1.13;0.20;;;;;;;;;;5029165;28;20033;-60
2021/10/08 02:01:41;;;;;;;0.32;0.10;;;;;;;;;;5014197;28;20026;-60
2021/10/08 02:04:07;;;;;;;7.03;0.20;;;;;;;;;;5015070;28;20037;-60
2021/10/08 02:06:33;;;;;;;0.35;0.20;;;;;;;;;;5013910;28;20457;-60
2021/10/08 02:08:58;;;;;;;0.30;0.10;;;;;;;;;;5012724;28;20042;-60
2021/10/08 02:11:24;;;;;;;1.75;0.10;;;;;;;;;;5017001;28;20063;-60
2021/10/08 02:13:50;;;;;;;0.10;0.10;;;;;;;;;;5016991;28;20033;-61
2021/10/08 02:16:15;;;;;;;1.00;0.20;;;;;;;;;;5020092;28;20401;-61
2021/10/08 02:18:41;;;;;;;0.57;0.10;;;;;;;;;;5019734;28;20030;-60
2021/10/08 02:21:06;;;;;;;0.38;0.20;;;;;;;;;;5016445;28;20153;-61
2021/10/08 02:23:32;;;;;;;0.10;0.10;;;;;;;;;;5017189;28;20451;-60
2021/10/08 02:25:58;;;;;;;0.45;0.10;;;;;;;;;;5020902;28;20038;-60
2021/10/08 02:28:23;;;;;;;0.10;0.10;;;;;;;;;;5020531;28;20089;-60
2021/10/08 02:30:49;;;;;;;0.20;0.20;;;;;;;;;;5014748;28;20041;-61
2021/10/08 02:33:15;;;;;;;0.95;0.20;;;;;;;;;;5020187;28;20032;-60
2021/10/08 02:35:40;;;;;;;0.10;0.10;;;;;;;;;;5018908;28;20033;-60
2021/10/08 02:38:06;;;;;;;2.33;0.10;;;;;;;;;;5016808;28;20104;-60
2021/10/08 02:40:32;;;;;;;0.60;0.20;;;;;;;;;;5019485;28;20104;-60
2021/10/08 02:42:57;;;;;;;0.52;0.20;;;;;;;;;;5015517;28;20063;-60
2021/10/08 02:45:23;;;;;;;0.65;0.13;;;;;;;;;;5021569;28;20029;-60
2021/10/08 02:47:49;;;;;;;0.35;0.20;;;;;;;;;;5016718;28;20034;-60
2021/10/08 02:50:15;;;;;;;2.70;0.30;;;;;;;;;;5014834;28;20052;-60
2021/10/08 02:52:41;;;;;;;2.63;0.40;;;;;;;;;;5012977;28;20041;-60
2021/10/08 02:55:08;;;;;;;0.68;0.30;;;;;;;;;;5013859;28;20464;-60
2021/10/08 02:57:36;;;;;;;0.63;0.30;;;;;;;;;;5018213;28;20116;-60
2021/10/08 03:00:05;;;;;;;1.45;0.30;;;;;;;;;;5017028;28;20025;-60
2021/10/08 03:02:31;;;;;;;1.65;0.20;;;;;;;;;;5019921;28;20049;-60
2021/10/08 03:04:56;;;;;;;1.35;0.30;;;;;;;;;;5011113;28;20501;-60
2021/10/08 03:07:22;;;;;;;2.17;0.50;;;;;;;;;;5016983;28;20092;-60
2021/10/08 03:09:48;;;;;;;0.50;0.30;;;;;;;;;;5012963;28;20088;-60
2021/10/08 03:12:14;;;;;;;2.55;0.45;;;;;;;;;;5013121;28;20295;-60
2021/10/08 03:14:39;;;;;;;3.30;0.70;;;;;;;;;;5019325;28;20034;-60
2021/10/08 03:17:05;;;;;;;2.35;0.32;;;;;;;;;;5013716;28;20091;-60
2021/10/08 03:19:30;;;;;;;3.25;0.40;;;;;;;;;;5018516;28;20153;-60
2021/10/08 03:21:56;;;;;;;2.55;0.40;;;;;;;;;;5018864;28;20045;-59
2021/10/08 03:24:22;;;;;;;3.70;1.20;;;;;;;;;;5016235;28;20026;-60
2021/10/08 03:26:47;;;;;;;4.38;0.73;;;;;;;;;;5008548;28;20034;-60
2021/10/08 03:29:13;;;;;;;1.13;0.40;;;;;;;;;;5016808;28;20087;-59
2021/10/08 03:31:38;;;;;;;2.47;0.63;;;;;;;;;;5018348;28;20038;-60
2021/10/08 03:34:04;;;;;;;3.50;0.90;;;;;;;;;;5019488;28;20350;-60
2021/10/08 03:39:12;;;;;;;4.80;0.98;;;;;;;;;;5020157;28;20029;-60
2021/10/08 03:41:39;;;;;;;2.20;0.60;;;;;;;;;;5017878;28;20113;-60
2021/10/08 03:44:05;;;;;;;5.68;0.90;;;;;;;;;;5022452;28;20037;-60
2021/10/08 03:46:37;;;;;;;3.00;0.40;;;;;;;;;;5023788;28;20044;-60
2021/10/08 03:51:33;;;;;;;5.40;0.73;;;;;;;;;;5022157;28;20026;-59
2021/10/08 03:53:58;;;;;;;3.65;0.43;;;;;;;;;;5021661;28;20044;-60
2021/10/08 03:56:25;;;;;;;4.40;0.68;;;;;;;;;;5019533;28;20129;-60
2021/10/08 03:58:51;;;;;;;5.80;0.55;;;;;;;;;;5024081;28;20692;-60
2021/10/08 04:01:17;;;;;;;5.13;0.60;;;;;;;;;;5019641;28;20033;-60
2021/10/08 04:03:42;;;;;;;5.35;1.05;;;;;;;;;;5021884;28;20033;-60
2021/10/08 04:06:08;;;;;;;8.73;0.88;;;;;;;;;;5019012;28;20072;-60
2021/10/08 04:08:33;;;;;;;4.78;0.82;;;;;;;;;;5017611;28;20029;-60
2021/10/08 04:10:59;;;;;;;3.50;0.68;;;;;;;;;;5021542;28;20083;-61
2021/10/08 04:13:24;;;;;;;6.13;1.17;;;;;;;;;;5017880;28;20535;-60
2021/10/08 04:15:50;;;;;;;5.55;0.70;;;;;;;;;;5022143;28;20029;-60
2021/10/08 04:18:15;;;;;;;4.85;0.80;;;;;;;;;;5015597;28;20497;-60
2021/10/08 04:20:42;;;;;;;4.38;0.60;;;;;;;;;;5017277;28;20029;-60
2021/10/08 04:23:08;;;;;;;7.25;0.70;;;;;;;;;;5019568;28;20033;-60
2021/10/08 04:25:34;;;;;;;12.82;1.25;;;;;;;;;;5016674;28;20496;-60
2021/10/08 04:27:59;;;;;;;4.65;0.90;;;;;;;;;;5018465;28;20091;-60
2021/10/08 04:30:25;;;;;;;6.90;1.40;;;;;;;;;;5019293;28;20037;-60
2021/10/08 04:32:50;;;;;;;6.47;0.70;;;;;;;;;;5017366;28;20030;-60
2021/10/08 04:35:16;;;;;;;9.63;1.73;;;;;;;;;;5019295;28;20049;-60
2021/10/08 04:37:42;;;;;;;3.70;1.15;;;;;;;;;;5017852;28;20363;-60
2021/10/08 04:40:08;;;;;;;12.35;1.33;;;;;;;;;;5014776;28;20041;-60
2021/10/08 04:42:34;;;;;;;7.93;0.85;;;;;;;;;;5015821;28;20084;-59
2021/10/08 04:45:00;;;;;;;7.00;1.30;;;;;;;;;;5020142;28;20041;-60
2021/10/08 04:47:25;;;;;;;9.50;1.20;;;;;;;;;;5017119;28;20264;-60
2021/10/08 04:49:51;;;;;;;7.82;1.40;;;;;;;;;;5018090;28;20034;-60
2021/10/08 04:52:17;;;;;;;5.90;1.00;;;;;;;;;;5014695;28;20025;-60
2021/10/08 04:54:42;;;;;;;9.32;1.30;;;;;;;;;;5016991;28;20049;-60
2021/10/08 04:57:08;;;;;;;4.78;0.90;;;;;;;;;;5018770;28;20038;-60
2021/10/08 04:59:34;;;;;;;6.90;1.40;;;;;;;;;;5018157;28;20072;-60
2021/10/08 05:02:00;;;;;;;9.32;1.70;;;;;;;;;;5014272;28;20037;-60
2021/10/08 05:04:25;;;;;;;5.68;1.50;;;;;;;;;;5015038;28;20036;-60
2021/10/08 05:06:51;;;;;;;10.68;1.30;;;;;;;;;;5019221;28;20481;-61
2021/10/08 05:09:16;;;;;;;8.48;1.40;;;;;;;;;;5031102;28;20048;-60
2021/10/08 05:11:42;;;;;;;8.57;1.20;;;;;;;;;;5019083;28;20029;-60
2021/10/08 05:14:10;;;;;;;8.10;1.55;;;;;;;;;;5016101;28;20034;-60
2021/10/08 05:16:36;;;;;;;7.93;1.40;;;;;;;;;;5022320;28;20034;-60
2021/10/08 05:19:02;;;;;;;10.80;1.63;;;;;;;;;;5021873;28;20546;-60
2021/10/08 05:21:27;;;;;;;8.43;1.42;;;;;;;;;;5013466;28;20436;-60
2021/10/08 05:23:53;;;;;;;13.48;1.42;;;;;;;;;;5017591;28;20167;-60
2021/10/08 05:26:18;;;;;;;11.32;2.55;;;;;;;;;;5017298;28;20033;-60
2021/10/08 05:28:43;;;;;;;7.57;1.23;;;;;;;;;;5019179;28;20079;-60
2021/10/08 05:31:09;;;;;;;9.73;2.13;;;;;;;;;;5022098;28;20029;-60
2021/10/08 05:33:35;;;;;;;12.10;1.90;;;;;;;;;;5023739;28;20416;-60
2021/10/08 05:36:00;;;;;;;15.40;3.05;;;;;;;;;;5022205;28;20438;-60
2021/10/08 05:38:25;;;;;;;10.05;1.10;;;;;;;;;;5014836;28;20041;-60
2021/10/08 05:40:52;;;;;;;10.80;1.40;;;;;;;;;;5018244;28;20480;-60
2021/10/08 05:43:19;;;;;;;15.68;1.50;;;;;;;;;;5023560;28;20149;-61
2021/10/08 05:45:44;;;;;;;9.00;1.25;;;;;;;;;;5011990;28;20021;-60
2021/10/08 05:48:10;;;;;;;16.60;2.28;;;;;;;;;;5018831;28;20484;-60
2021/10/08 05:50:36;;;;;;;16.70;1.92;;;;;;;;;;5024358;28;20029;-60
2021/10/08 05:53:05;;;;;;;9.20;1.95;;;;;;;;;;5021717;28;20047;-60
2021/10/08 05:55:31;;;;;;;12.85;1.80;;;;;;;;;;5020429;28;20087;-60
2021/10/08 05:57:57;;;;;;;11.00;1.90;;;;;;;;;;5016180;28;20106;-61
2021/10/08 06:00:23;;;;;;;12.27;1.63;;;;;;;;;;5019016;28;20207;-61
2021/10/08 06:02:48;;;;;;;7.45;1.50;;;;;;;;;;5020598;28;20492;-61
2021/10/08 06:05:14;;;;;;;8.73;1.45;;;;;;;;;;5025463;28;20045;-61
2021/10/08 06:07:39;;;;;;;10.27;1.48;;;;;;;;;;5019834;28;20022;-59
2021/10/08 06:10:05;;;;;;;11.18;1.65;;;;;;;;;;5021998;28;20030;-61
2021/10/08 06:12:31;;;;;;;7.70;1.35;;;;;;;;;;5023940;28;20278;-61
2021/10/08 06:14:56;;;;;;;9.15;1.85;;;;;;;;;;5022941;28;20046;-60
2021/10/08 06:17:22;;;;;;;12.98;1.77;;;;;;;;;;5025701;28;20038;-60
2021/10/08 06:19:47;;;;;;;8.93;1.40;;;;;;;;;;5019779;28;20697;-61
2021/10/08 06:22:13;;;;;;;10.85;1.42;;;;;;;;;;5026853;28;20029;-61
2021/10/08 06:24:38;;;;;;;5.18;1.25;;;;;;;;;;5023935;28;20644;-60
2021/10/08 06:27:04;;;;;;;11.38;1.77;;;;;;;;;;5026723;28;20443;-60
2021/10/08 06:29:29;;;;;;;11.80;1.60;;;;;;;;;;5016129;28;20046;-60
2021/10/08 06:31:55;;;;;;;20.70;2.40;;;;;;;;;;5018381;28;20412;-60
2021/10/08 06:34:20;;;;;;;11.88;1.83;;;;;;;;;;5020839;28;20385;-60
2021/10/08 06:36:46;;;;;;;12.40;1.70;;;;;;;;;;5025557;28;20112;-60
2021/10/08 06:39:11;;;;;;;8.43;1.30;;;;;;;;;;5017833;28;20034;-60
2021/10/08 06:41:37;;;;;;;19.35;2.85;;;;;;;;;;5022183;28;20424;-60
2021/10/08 06:44:03;;;;;;;11.57;1.83;;;;;;;;;;5034621;28;20038;-60
2021/10/08 06:46:28;;;;;;;12.73;1.77;;;;;;;;;;5021027;28;20536;-60
2021/10/08 06:48:54;;;;;;;11.85;2.22;;;;;;;;;;5014844;28;20118;-61
2021/10/08 06:51:19;;;;;;;12.38;3.42;;;;;;;;;;5017036;28;20411;-60
2021/10/08 06:53:45;;;;;;;18.33;2.17;;;;;;;;;;5021542;28;20512;-60
2021/10/08 06:56:10;;;;;;;11.95;1.80;;;;;;;;;;5021136;28;20041;-61
2021/10/08 06:58:36;;;;;;;13.57;2.00;;;;;;;;;;5022061;28;20033;-61
2021/10/08 07:01:02;;;;;;;13.48;1.73;;;;;;;;;;5016993;28;20094;-60
2021/10/08 07:03:27;;;;;;;12.95;2.35;;;;;;;;;;5020259;28;20041;-61
2021/10/08 07:05:53;;;;;;;9.13;1.50;;;;;;;;;;5026334;28;20439;-61
2021/10/08 07:08:18;;;;;;;14.63;2.33;;;;;;;;;;5023896;28;20388;-61
2021/10/08 07:10:44;;;;;;;17.05;2.97;;;;;;;;;;5017071;28;20040;-60
2021/10/08 07:13:10;;;;;;;13.95;2.08;;;;;;;;;;5024988;28;20037;-61
2021/10/08 07:15:36;;;;;;;7.82;1.60;;;;;;;;;;5027250;28;20025;-60
2021/10/08 07:18:02;;;;;;;10.13;1.48;;;;;;;;;;5016747;28;20026;-60
2021/10/08 07:20:29;;;;;;;9.55;1.70;;;;;;;;;;5017666;28;20041;-60
2021/10/08 07:22:56;;;;;;;14.48;1.98;;;;;;;;;;5021269;28;20033;-60
2021/10/08 07:25:24;;;;;;;9.50;1.80;;;;;;;;;;5022180;28;20116;-60
2021/10/08 07:27:49;;;;;;;13.10;1.95;;;;;;;;;;5026038;28;20033;-60
2021/10/08 07:30:16;;;;;;;17.45;2.25;;;;;;;;;;5022345;28;20079;-59
2021/10/08 07:32:42;;;;;;;9.52;2.05;;;;;;;;;;5017630;28;20032;-60
2021/10/08 07:35:08;;;;;;;12.90;1.50;;;;;;;;;;5022647;28;20497;-60
2021/10/08 07:37:35;;;;;;;12.13;2.15;;;;;;;;;;5022780;28;20025;-60
2021/10/08 07:40:00;;;;;;;10.05;1.67;;;;;;;;;;5023148;28;20519;-61
2021/10/08 07:42:26;;;;;;;15.82;1.70;;;;;;;;;;5020946;28;20061;-61
2021/10/08 07:44:52;;;;;;;10.90;1.35;;;;;;;;;;5019457;28;20249;-60
2021/10/08 07:47:17;;;;;;;8.57;1.70;;;;;;;;;;5016119;28;20442;-60
2021/10/08 07:49:43;;;;;;;10.82;1.60;;;;;;;;;;5023745;28;20041;-60
2021/10/08 07:52:09;;;;;;;9.10;1.40;;;;;;;;;;5020570;28;20025;-60
2021/10/08 07:54:35;;;;;;;10.07;1.60;;;;;;;;;;5022543;28;20057;-60
2021/10/08 07:57:00;;;;;;;11.40;2.17;;;;;;;;;;5019296;28;20040;-60
2021/10/08 07:59:26;;;;;;;9.90;2.05;;;;;;;;;;5017181;28;20091;-60
2021/10/08 08:01:51;;;;;;;9.48;0.93;;;;;;;;;;5017028;28;20033;-60
2021/10/08 08:04:17;;;;;;;9.35;1.20;;;;;;;;;;5013904;28;20081;-61
2021/10/08 08:06:42;;;;;;;14.70;1.80;;;;;;;;;;5021607;28;20399;-60
2021/10/08 08:09:08;;;;;;;15.85;2.55;;;;;;;;;;5017608;28;20026;-60
2021/10/08 08:11:34;;;;;;;9.07;1.35;;;;;;;;;;5025155;28;20063;-60
2021/10/08 08:14:00;;;;;;;8.45;1.52;;;;;;;;;;5017641;28;20034;-60
2021/10/08 08:16:26;;;;;;;7.72;1.25;;;;;;;;;;5018885;28;20034;-60
2021/10/08 08:18:51;;;;;;;8.82;1.23;;;;;;;;;;5015841;28;20025;-61
2021/10/08 08:21:18;;;;;;;9.35;1.40;;;;;;;;;;5013657;28;20041;-60
2021/10/08 08:23:43;;;;;;;8.10;1.10;;;;;;;;;;5018678;28;20113;-60
2021/10/08 08:26:09;;;;;;;10.27;1.30;;;;;;;;;;5014908;28;20124;-60
2021/10/08 08:28:34;;;;;;;8.40;1.30;;;;;;;;;;5022166;28;20049;-60
2021/10/08 08:31:00;;;;;;;17.58;1.45;;;;;;;;;;5029700;28;20037;-60
2021/10/08 08:33:25;;;;;;;11.70;1.58;;;;;;;;;;5020680;28;20829;-60
2021/10/08 08:35:51;;;;;;;5.82;1.02;;;;;;;;;;5024973;28;20041;-61
2021/10/08 08:38:17;;;;;;;13.20;1.67;;;;;;;;;;5014058;28;20025;-60
2021/10/08 08:40:42;;;;;;;6.78;1.40;;;;;;;;;;5022415;28;20044;-60
2021/10/08 08:43:08;;;;;;;8.55;1.35;;;;;;;;;;5016854;28;20030;-60
2021/10/08 08:45:34;;;;;;;6.70;1.02;;;;;;;;;;5013282;28;20034;-60
2021/10/08 08:48:17;;;;;;;7.35;1.23;;;;;;;;;;5014524;28;20040;-60
2021/10/08 08:50:45;;;;;;;10.75;1.23;;;;;;;;;;5019204;28;20049;-60
2021/10/08 08:53:13;;;;;;;9.43;1.65;;;;;;;;;;5024846;28;20141;-60
2021/10/08 08:55:38;;;;;;;16.08;2.40;;;;;;;;;;5015034;28;20424;-60
2021/10/08 08:58:04;;;;;;;8.50;1.10;;;;;;;;;;5017891;28;20030;-60
2021/10/08 09:00:30;;;;;;;8.73;1.25;;;;;;;;;;5017287;28;20041;-61
2021/10/08 09:03:03;;;;;;;7.18;1.00;;;;;;;;;;5018687;28;20026;-60
2021/10/08 09:05:31;;;;;;;10.70;1.60;;;;;;;;;;5016178;28;20488;-60
2021/10/08 09:08:04;;;;;;;6.95;1.23;;;;;;;;;;5016519;28;20268;-60
2021/10/08 09:10:31;;;;;;;7.72;1.02;;;;;;;;;;5014219;28;20030;-60
2021/10/08 09:12:57;;;;;;;6.53;1.10;;;;;;;;;;5017188;28;20171;-60
2021/10/08 09:15:26;;;;;;;11.38;1.58;;;;;;;;;;5020811;28;20544;-60
2021/10/08 09:18:11;;;;;;;8.43;1.30;;;;;;;;;;5023339;28;20392;-60
2021/10/08 09:20:38;;;;;;;8.20;1.00;;;;;;;;;;5017409;28;20029;-60
2021/10/08 09:23:05;;;;;;;9.18;1.73;;;;;;;;;;5017747;28;20654;-60
2021/10/08 09:25:34;;;;;;;6.38;1.55;;;;;;;;;;5023931;28;20108;-60
2021/10/08 09:28:02;;;;;;;11.18;1.38;;;;;;;;;;5020373;28;20080;-60
2021/10/08 09:30:43;;;;;;;13.57;1.48;;;;;;;;;;5021278;28;20033;-60
2021/10/08 09:33:14;;;;;;;9.88;1.35;;;;;;;;;;5013912;28;20120;-60
2021/10/08 09:35:41;;;;;;;9.90;1.98;;;;;;;;;;5016334;28;20022;-60
2021/10/08 09:38:13;;;;;;;9.20;1.30;;;;;;;;;;5017498;28;20053;-61
2021/10/08 09:40:57;;;;;;;9.00;1.00;;;;;;;;;;5021136;28;20468;-60
2021/10/08 09:43:22;;;;;;;7.82;1.40;;;;;;;;;;5026374;28;20544;-60
2021/10/08 09:45:51;;;;;;;11.50;1.55;;;;;;;;;;5016032;28;20238;-60
2021/10/08 09:48:20;;;;;;;7.78;1.10;;;;;;;;;;5018469;28;20041;-60
2021/10/08 09:51:08;;;;;;;11.57;1.38;;;;;;;;;;5016109;28;20105;-60
2021/10/08 09:53:36;;;;;;;13.38;1.88;;;;;;;;;;5017083;28;20740;-60
2021/10/08 09:56:22;;;;;;;11.18;1.60;;;;;;;;;;5020022;28;20050;-60
2021/10/08 09:58:52;;;;;;;10.45;1.20;;;;;;;;;;5019183;28;20088;-60
2021/10/08 10:01:29;;;;;;;8.65;1.20;;;;;;;;;;5020823;28;20103;-60
2021/10/08 10:03:55;;;;;;;10.50;1.30;;;;;;;;;;5020809;28;20061;-60
2021/10/08 10:06:21;;;;;;;9.45;1.50;;;;;;;;;;5018702;28;20029;-61
2021/10/08 10:08:47;;;;;;;10.23;1.20;;;;;;;;;;5019934;28;20029;-60
2021/10/08 10:11:18;;;;;;;9.52;1.27;;;;;;;;;;5017835;28;20072;-60
2021/10/08 10:13:49;;;;;;;13.98;1.25;;;;;;;;;;5020298;28;20469;-60
2021/10/08 10:16:17;;;;;;;8.52;1.35;;;;;;;;;;5019496;28;20033;-60
2021/10/08 10:18:54;;;;;;;10.73;1.02;;;;;;;;;;5015713;28;20080;-61
2021/10/08 10:21:25;;;;;;;15.05;1.38;;;;;;;;;;5017155;28;20057;-60
2021/10/08 10:23:56;;;;;;;6.85;1.25;;;;;;;;;;5013605;28;20033;-61
2021/10/08 10:26:23;;;;;;;10.27;1.70;;;;;;;;;;5018178;28;20651;-60
2021/10/08 10:28:48;;;;;;;7.28;1.35;;;;;;;;;;5012295;28;20096;-60
2021/10/08 10:31:15;;;;;;;11.82;1.02;;;;;;;;;;5021572;28;20377;-60
2021/10/08 10:33:42;;;;;;;11.95;2.65;;;;;;;;;;5015301;28;20057;-60
2021/10/08 10:36:22;;;;;;;8.43;1.17;;;;;;;;;;5018098;28;20545;-60
2021/10/08 10:38:48;;;;;;;5.40;1.00;;;;;;;;;;5017225;28;20389;-60
2021/10/08 10:41:17;;;;;;;12.15;1.20;;;;;;;;;;5010575;28;20032;-60
2021/10/08 10:43:54;;;;;;;6.55;0.95;;;;;;;;;;5012272;28;20033;-60
2021/10/08 10:49:56;;;;;;;3.30;0.60;;;;;;;;;;5010938;28;20065;-60
2021/10/08 10:52:01;;;;;;;6.85;0.95;;;;;;;;;;5017579;28;20026;-60
2021/10/08 10:54:39;;;;;;;10.63;1.05;;;;;;;;;;5013193;28;20045;-59
2021/10/08 10:57:13;;;;;;;8.27;0.85;;;;;;;;;;5012837;28;20029;-60
2021/10/08 10:59:40;;;;;;;6.93;0.75;;;;;;;;;;5013620;28;20533;-60
2021/10/08 11:02:09;;;;;;;10.20;0.75;;;;;;;;;;5016821;28;20639;-61
2021/10/08 11:04:40;;;;;;;7.13;0.50;;;;;;;;;;5017429;28;20041;-60
2021/10/08 11:07:22;;;;;;;4.82;0.50;;;;;;;;;;5012810;28;20036;-60
2021/10/08 11:09:56;;;;;;;5.70;0.75;;;;;;;;;;5013737;28;20144;-60
2021/10/08 11:12:40;;;;;;;7.75;0.90;;;;;;;;;;5011720;28;20026;-60
2021/10/08 11:17:53;;;;;;;7.00;1.15;;;;;;;;;;5013016;28;20499;-60
2021/10/08 11:20:31;;;;;;;10.98;1.25;;;;;;;;;;5013127;28;20033;-61
2021/10/08 11:23:05;;;;;;;18.77;1.23;;;;;;;;;;5014540;28;20037;-60
2021/10/08 11:25:46;;;;;;;5.20;1.00;;;;;;;;;;5014026;28;20428;-60
2021/10/08 11:28:14;;;;;;;9.48;1.13;;;;;;;;;;5010578;28;20026;-60
2021/10/08 11:30:40;;;;;;;6.72;0.80;;;;;;;;;;5014157;28;20307;-61
2021/10/08 11:33:06;;;;;;;6.22;1.00;;;;;;;;;;5017187;28;20320;-60
2021/10/08 11:35:34;;;;;;;5.20;0.70;;;;;;;;;;5013125;28;20032;-60
2021/10/08 11:38:01;;;;;;;6.07;1.10;;;;;;;;;;5016789;28;20030;-60
2021/10/08 11:40:33;;;;;;;6.80;0.85;;;;;;;;;;5023357;28;20037;-60
2021/10/08 11:43:10;;;;;;;11.82;1.30;;;;;;;;;;5011883;28;20539;-61
2021/10/08 11:48:46;;;;;;;7.30;1.15;;;;;;;;;;5020340;28;20045;-60
2021/10/08 11:51:11;;;;;;;5.80;1.02;;;;;;;;;;5012600;28;20377;-60
2021/10/08 11:53:51;;;;;;;8.73;0.75;;;;;;;;;;5031029;28;20037;-60
2021/10/08 11:56:25;;;;;;;6.97;1.23;;;;;;;;;;5022057;28;20046;-60
2021/10/08 11:59:11;;;;;;;7.50;1.08;;;;;;;;;;5021725;28;20017;-60
2021/10/08 12:01:38;;;;;;;7.40;0.93;;;;;;;;;;5019146;28;20050;-61
2021/10/08 12:04:04;;;;;;;6.65;0.77;;;;;;;;;;5017842;28;20261;-60
2021/10/08 12:06:31;;;;;;;3.65;0.88;;;;;;;;;;5018505;28;20064;-61
2021/10/08 12:09:02;;;;;;;7.07;1.10;;;;;;;;;;5020872;28;20045;-61
2021/10/08 12:11:29;;;;;;;15.40;1.17;;;;;;;;;;5013778;28;20029;-60
2021/10/08 12:14:02;;;;;;;9.20;1.10;;;;;;;;;;5013217;28;20512;-60
2021/10/08 12:16:45;;;;;;;5.35;0.90;;;;;;;;;;5018267;28;20112;-60
2021/10/08 12:19:13;;;;;;;9.00;2.08;;;;;;;;;;5013900;28;20071;-60
2021/10/08 12:21:41;;;;;;;4.45;0.80;;;;;;;;;;5013167;28;20046;-60
2021/10/08 12:24:09;;;;;;;7.43;1.40;;;;;;;;;;5021803;28;20108;-61
2021/10/08 12:26:38;;;;;;;6.03;0.90;;;;;;;;;;5019063;28;20028;-61
2021/10/08 12:29:12;;;;;;;9.70;1.10;;;;;;;;;;5021945;28;20048;-61
2021/10/08 12:31:49;;;;;;;7.47;1.13;;;;;;;;;;5018328;28;20033;-60
2021/10/08 12:34:39;;;;;;;12.63;1.38;;;;;;;;;;5023636;28;20032;-61
2021/10/08 12:37:10;;;;;;;11.30;1.88;;;;;;;;;;5020457;28;20120;-60
2021/10/08 12:39:42;;;;;;;5.03;0.70;;;;;;;;;;5019294;28;20037;-60
2021/10/08 12:42:10;;;;;;;9.35;1.42;;;;;;;;;;5022375;28;20485;-60
2021/10/08 12:44:47;;;;;;;8.48;1.17;;;;;;;;;;5018281;28;20288;-60
2021/10/08 12:47:13;;;;;;;10.98;1.17;;;;;;;;;;5019622;28;20567;-60
2021/10/08 12:49:48;;;;;;;7.22;1.20;;;;;;;;;;5017374;28;20026;-59
2021/10/08 12:52:16;;;;;;;6.78;0.80;;;;;;;;;;5026740;28;20037;-60
2021/10/08 12:54:43;;;;;;;8.60;1.00;;;;;;;;;;5016242;28;20057;-60
2021/10/08 12:57:16;;;;;;;7.50;0.90;;;;;;;;;;5021880;28;20107;-60
2021/10/08 12:59:48;;;;;;;8.77;0.85;;;;;;;;;;5023008;28;20021;-60
2021/10/08 13:02:14;;;;;;;8.13;0.80;;;;;;;;;;5019056;28;20045;-60
2021/10/08 13:04:41;;;;;;;8.45;1.52;;;;;;;;;;5021038;28;20025;-60
2021/10/08 13:07:18;;;;;;;9.45;1.58;;;;;;;;;;5021319;28;20030;-60
2021/10/08 13:10:05;;;;;;;7.88;0.85;;;;;;;;;;5025527;28;20033;-60
2021/10/08 13:12:48;;;;;;;7.07;0.90;;;;;;;;;;5025401;28;20029;-60
2021/10/08 13:15:15;;;;;;;6.10;1.05;;;;;;;;;;5026891;28;20061;-61
2021/10/08 13:17:41;;;;;;;11.18;1.48;;;;;;;;;;5020219;28;20061;-60
2021/10/08 13:20:08;;;;;;;6.03;1.30;;;;;;;;;;5021292;28;20439;-60
2021/10/08 13:22:37;;;;;;;14.63;1.00;;;;;;;;;;5014994;28;20029;-60
2021/10/08 13:25:04;;;;;;;10.13;1.73;;;;;;;;;;5022045;28;20061;-60
2021/10/08 13:27:33;;;;;;;9.88;1.33;;;;;;;;;;5017902;28;20390;-60
2021/10/08 13:30:00;;;;;;;7.07;0.88;;;;;;;;;;5020346;28;20116;-60
2021/10/08 13:32:26;;;;;;;5.22;1.10;;;;;;;;;;5019287;28;20052;-60
2021/10/08 13:34:52;;;;;;;8.95;1.30;;;;;;;;;;5020749;28;20035;-60
2021/10/08 13:37:17;;;;;;;8.60;1.05;;;;;;;;;;5018060;28;20037;-60
2021/10/08 13:39:43;;;;;;;8.73;1.00;;;;;;;;;;5024821;28;20030;-60
2021/10/08 13:42:08;;;;;;;9.77;1.30;;;;;;;;;;5025873;28;20033;-60
2021/10/08 13:44:37;;;;;;;9.00;1.25;;;;;;;;;;5019676;28;20067;-61
2021/10/08 13:47:03;;;;;;;7.05;1.00;;;;;;;;;;5023965;28;20125;-60
2021/10/08 13:49:31;;;;;;;7.30;0.90;;;;;;;;;;5016306;28;20069;-60
2021/10/08 13:51:57;;;;;;;7.60;0.80;;;;;;;;;;5039141;28;20038;-61
2021/10/08 13:54:22;;;;;;;9.07;1.17;;;;;;;;;;5019178;28;20106;-60
2021/10/08 13:56:48;;;;;;;6.38;1.17;;;;;;;;;;5020279;28;20100;-60
2021/10/08 13:59:13;;;;;;;10.02;1.02;;;;;;;;;;5026715;28;20041;-60
2021/10/08 14:01:54;;;;;;;4.13;0.70;;;;;;;;;;5016090;28;20053;-60
2021/10/08 14:04:57;;;;;;;6.20;1.02;;;;;;;;;;5016797;28;20684;-60
2021/10/08 14:07:28;;;;;;;9.40;1.10;;;;;;;;;;5020905;28;20122;-60
2021/10/08 14:12:38;;;;;;;5.50;1.35;;;;;;;;;;5020947;28;20068;-60
2021/10/08 14:15:04;;;;;;;9.23;2.03;;;;;;;;;;5014623;28;20045;-61
2021/10/08 14:17:30;;;;;;;5.30;0.95;;;;;;;;;;5015679;28;20018;-60
2021/10/08 14:19:56;;;;;;;3.42;0.70;;;;;;;;;;5014788;28;20086;-60
2021/10/08 14:22:22;;;;;;;3.45;0.80;;;;;;;;;;5015574;28;20075;-60
2021/10/08 14:24:48;;;;;;;9.13;1.27;;;;;;;;;;5013873;28;20041;-60
2021/10/08 14:27:13;;;;;;;5.05;1.00;;;;;;;;;;5020372;28;20543;-61
2021/10/08 14:29:39;;;;;;;3.75;0.80;;;;;;;;;;5017661;28;20095;-60
2021/10/08 14:32:05;;;;;;;2.60;0.70;;;;;;;;;;5021579;28;20022;-61
2021/10/08 14:34:31;;;;;;;4.40;0.70;;;;;;;;;;5019069;28;20587;-60
2021/10/08 14:36:56;;;;;;;3.25;0.60;;;;;;;;;;5017430;28;20041;-59
2021/10/08 14:39:22;;;;;;;2.78;0.68;;;;;;;;;;5014745;28;20045;-61
2021/10/08 14:41:47;;;;;;;3.95;0.60;;;;;;;;;;5017235;28;20040;-58
2021/10/08 14:44:13;;;;;;;4.88;0.70;;;;;;;;;;5022670;28;20498;-60
2021/10/08 14:46:38;;;;;;;2.88;0.50;;;;;;;;;;5016114;28;20485;-61
2021/10/08 14:49:04;;;;;;;3.67;0.60;;;;;;;;;;5021960;28;20038;-60
2021/10/08 14:51:31;;;;;;;5.50;0.90;;;;;;;;;;5016524;28;20092;-60
2021/10/08 14:54:10;;;;;;;4.10;0.77;;;;;;;;;;5018876;28;20041;-60
2021/10/08 14:56:57;;;;;;;3.15;0.60;;;;;;;;;;5020837;28;20046;-59
2021/10/08 14:59:22;;;;;;;5.20;0.50;;;;;;;;;;5013277;28;20100;-60
2021/10/08 15:01:48;;;;;;;7.65;0.80;;;;;;;;;;5017814;28;20034;-60